createdAt,value
2022-12-12T00:00:15.839Z,46.93
2022-12-12T00:02:42.719Z,41.30
2022-12-12T00:05:14.474Z,41.87
2022-12-12T00:07:41.608Z,40.30
2022-12-12T00:10:11.107Z,43.83
2022-12-12T00:12:39.068Z,40.43
2022-12-12T00:15:06.604Z,47.57
2022-12-12T00:17:33.325Z,43.43
2022-12-12T00:20:00.141Z,45.60
2022-12-12T00:22:26.865Z,43.13
2022-12-12T00:24:53.553Z,47.87
2022-12-12T00:27:20.261Z,46.23
2022-12-12T00:29:52.803Z,44.00
2022-12-12T00:32:19.864Z,44.50
2022-12-12T00:34:46.955Z,42.80
2022-12-12T00:37:13.905Z,40.40
2022-12-12T00:39:40.794Z,44.67
2022-12-12T00:42:07.501Z,42.47
2022-12-12T00:44:34.250Z,47.23
2022-12-12T00:47:01.126Z,42.00
2022-12-12T00:49:27.864Z,43.53
2022-12-12T00:51:54.607Z,44.83
2022-12-12T00:54:23.612Z,42.37
2022-12-12T00:56:50.298Z,44.10
2022-12-12T00:59:17.082Z,48.63
2022-12-12T01:01:45.335Z,41.60
2022-12-12T01:04:12.116Z,43.47
2022-12-12T01:06:38.820Z,38.97
2022-12-12T01:09:05.702Z,41.60
2022-12-12T01:11:32.527Z,42.37
2022-12-12T01:13:59.267Z,40.20
2022-12-12T01:16:29.642Z,41.97
2022-12-12T01:18:57.606Z,42.17
2022-12-12T01:21:27.131Z,47.27
2022-12-12T01:23:53.924Z,39.33
2022-12-12T01:26:23.484Z,41.40
2022-12-12T01:28:51.434Z,39.83
2022-12-12T01:31:18.334Z,40.67
2022-12-12T01:33:46.276Z,42.40
2022-12-12T01:36:18.168Z,40.03
2022-12-12T01:38:47.056Z,40.67
2022-12-12T01:41:13.995Z,37.67
2022-12-12T01:43:41.089Z,42.20
2022-12-12T01:46:30.859Z,38.33
2022-12-12T01:49:03.715Z,40.00
2022-12-12T01:51:31.669Z,39.27
2022-12-12T01:54:04.646Z,41.60
2022-12-12T01:56:32.486Z,38.07
2022-12-12T01:59:00.459Z,37.83
2022-12-12T02:01:27.657Z,39.83
2022-12-12T02:03:55.093Z,40.57
2022-12-12T02:06:26.891Z,43.47
2022-12-12T02:08:55.294Z,41.77
2022-12-12T02:11:23.048Z,40.17
2022-12-12T02:13:50.564Z,42.67
2022-12-12T02:16:51.427Z,41.60
2022-12-12T02:19:46.834Z,38.23
2022-12-12T02:22:22.670Z,42.07
2022-12-12T02:24:55.248Z,41.13
2022-12-12T02:27:34.433Z,43.10
2022-12-12T02:30:24.276Z,44.27
2022-12-12T02:33:21.963Z,41.23
2022-12-12T02:36:06.734Z,40.63
2022-12-12T02:38:58.872Z,39.70
2022-12-12T02:41:32.147Z,41.80
2022-12-12T02:44:34.237Z,39.83
2022-12-12T02:47:12.458Z,42.67
2022-12-12T02:49:45.347Z,40.30
2022-12-12T02:52:12.425Z,41.03
2022-12-12T02:54:42.168Z,43.63
2022-12-12T02:57:20.515Z,35.10
2022-12-12T03:00:01.256Z,37.43
2022-12-12T03:03:24.440Z,38.77
2022-12-12T03:06:53.027Z,37.27
2022-12-12T03:09:40.098Z,37.77
2022-12-12T03:13:03.401Z,38.53
2022-12-12T03:15:44.764Z,36.43
2022-12-12T03:18:39.267Z,39.07
2022-12-12T03:21:15.143Z,41.53
2022-12-12T03:23:49.176Z,42.40
2022-12-12T03:26:30.211Z,39.93
2022-12-12T03:29:06.733Z,40.80
2022-12-12T03:31:37.555Z,42.03
2022-12-12T03:34:18.815Z,42.87
2022-12-12T03:37:00.386Z,37.37
2022-12-12T03:39:42.747Z,35.40
2022-12-12T03:42:17.001Z,38.23
2022-12-12T03:44:57.101Z,41.63
2022-12-12T03:47:38.227Z,40.43
2022-12-12T03:50:29.839Z,39.10
2022-12-12T03:53:10.897Z,36.43
2022-12-12T03:56:07.751Z,45.57
2022-12-12T03:58:42.645Z,41.27
2022-12-12T04:01:12.754Z,42.03
2022-12-12T04:03:56.446Z,43.87
2022-12-12T04:06:45.541Z,35.23
2022-12-12T04:09:34.898Z,38.40
2022-12-12T04:12:47.481Z,35.07
2022-12-12T04:15:49.775Z,32.50
2022-12-12T04:18:44.116Z,35.33
2022-12-12T04:21:56.371Z,38.50
2022-12-12T04:24:34.756Z,36.00
2022-12-12T04:27:25.098Z,43.63
2022-12-12T04:30:03.740Z,35.23
2022-12-12T04:32:42.301Z,37.20
2022-12-12T04:35:20.465Z,39.90
2022-12-12T04:37:57.483Z,34.73
2022-12-12T04:40:34.461Z,44.07
2022-12-12T04:43:06.191Z,41.43
2022-12-12T04:45:40.619Z,37.13
2022-12-12T04:48:12.194Z,35.63
2022-12-12T04:50:39.795Z,40.87
2022-12-12T04:53:18.580Z,43.70
2022-12-12T04:55:55.183Z,39.30
2022-12-12T04:58:22.126Z,37.20
2022-12-12T05:01:09.448Z,35.93
2022-12-12T05:03:49.162Z,36.73
2022-12-12T05:06:30.312Z,34.63
2022-12-12T05:08:58.453Z,41.00
2022-12-12T05:11:25.236Z,33.23
2022-12-12T05:13:51.970Z,34.83
2022-12-12T05:16:29.591Z,36.67
2022-12-12T05:18:56.392Z,37.40
2022-12-12T05:21:23.122Z,42.57
2022-12-12T05:23:49.926Z,36.40
2022-12-12T05:26:20.117Z,37.07
2022-12-12T05:28:46.789Z,37.87
2022-12-12T05:31:13.493Z,41.20
2022-12-12T05:33:40.358Z,40.00
2022-12-12T05:36:07.741Z,37.30
2022-12-12T05:38:34.790Z,36.90
2022-12-12T05:41:01.509Z,37.67
2022-12-12T05:43:28.220Z,38.33
2022-12-12T05:45:54.933Z,38.40
2022-12-12T05:48:24.568Z,41.57
2022-12-12T05:50:51.856Z,40.40
2022-12-12T05:53:18.966Z,38.67
2022-12-12T05:55:45.791Z,39.17
2022-12-12T05:58:12.575Z,38.57
2022-12-12T06:00:39.354Z,41.87
2022-12-12T06:03:06.103Z,37.93
2022-12-12T06:05:34.004Z,41.47
2022-12-12T06:08:00.881Z,37.83
2022-12-12T06:10:27.762Z,39.00
2022-12-12T06:12:54.551Z,40.03
2022-12-12T06:15:21.269Z,43.03
2022-12-12T06:17:48.017Z,39.10
2022-12-12T06:20:14.814Z,39.77
2022-12-12T06:22:42.402Z,39.90
2022-12-12T06:25:12.153Z,37.20
2022-12-12T06:27:39.093Z,40.20
2022-12-12T06:30:07.026Z,37.20
2022-12-12T06:32:33.707Z,40.57
2022-12-12T06:35:00.503Z,39.80
2022-12-12T06:37:27.175Z,41.13
2022-12-12T06:39:53.921Z,39.13
2022-12-12T06:42:20.694Z,41.10
2022-12-12T06:44:47.427Z,40.67
2022-12-12T06:47:17.142Z,38.07
2022-12-12T06:49:43.811Z,36.87
2022-12-12T06:52:10.494Z,45.80
2022-12-12T06:54:37.224Z,43.47
2022-12-12T06:57:04.169Z,40.37
2022-12-12T06:59:30.838Z,40.97
2022-12-12T07:01:57.804Z,42.43
2022-12-12T07:04:25.834Z,39.93
2022-12-12T07:06:52.990Z,41.23
2022-12-12T07:09:20.569Z,42.17
2022-12-12T07:11:47.262Z,36.93
2022-12-12T07:14:13.966Z,42.60
2022-12-12T07:16:40.659Z,43.63
2022-12-12T07:19:07.771Z,40.60
2022-12-12T07:21:34.448Z,42.57
2022-12-12T07:24:01.291Z,42.83
2022-12-12T07:26:28.044Z,42.17
2022-12-12T07:28:54.724Z,41.27
2022-12-12T07:31:25.633Z,41.37
2022-12-12T07:33:54.320Z,45.37
2022-12-12T07:36:21.948Z,43.93
2022-12-12T07:38:49.076Z,42.17
2022-12-12T07:41:17.845Z,45.00
2022-12-12T07:43:46.017Z,39.90
2022-12-12T07:46:16.795Z,45.87
2022-12-12T07:48:43.897Z,43.80
2022-12-12T07:51:10.662Z,44.23
2022-12-12T07:53:37.428Z,45.03
2022-12-12T07:56:08.999Z,45.57
2022-12-12T07:58:36.067Z,47.53
2022-12-12T08:01:14.883Z,43.93
2022-12-12T08:03:43.467Z,49.73
2022-12-12T08:06:10.483Z,44.07
2022-12-12T08:08:37.555Z,46.53
2022-12-12T08:11:10.474Z,46.10
2022-12-12T08:13:38.611Z,43.87
2022-12-12T08:16:07.214Z,47.60
2022-12-12T08:18:33.975Z,43.17
2022-12-12T08:21:00.655Z,47.93
2022-12-12T08:23:27.418Z,50.93
2022-12-12T08:25:54.173Z,43.97
2022-12-12T08:28:20.941Z,46.20
2022-12-12T08:30:50.491Z,42.07
2022-12-12T08:33:17.736Z,46.97
2022-12-12T08:35:44.448Z,48.57
2022-12-12T08:38:11.175Z,46.10
2022-12-12T08:40:37.852Z,47.90
2022-12-12T08:43:04.634Z,49.47
2022-12-12T08:45:31.335Z,44.30
2022-12-12T08:47:58.641Z,47.30
2022-12-12T08:50:25.584Z,50.93
2022-12-12T08:52:52.844Z,51.70
2022-12-12T08:55:20.215Z,49.27
2022-12-12T08:57:47.101Z,57.50
2022-12-12T09:00:14.420Z,56.07
2022-12-12T09:02:41.670Z,52.40
2022-12-12T09:05:08.998Z,57.27
2022-12-12T09:07:36.347Z,52.90
2022-12-12T09:10:04.767Z,55.87
2022-12-12T09:12:34.509Z,59.70
2022-12-12T09:15:03.954Z,62.30
2022-12-12T09:17:30.686Z,54.57
2022-12-12T09:19:57.414Z,58.23
2022-12-12T09:22:24.214Z,53.57
2022-12-12T09:24:50.889Z,52.20
2022-12-12T09:27:17.590Z,56.87
2022-12-12T09:29:44.236Z,55.57
2022-12-12T09:32:10.924Z,60.93
2022-12-12T09:34:38.567Z,52.43
2022-12-12T09:37:05.616Z,60.47
2022-12-12T09:39:32.339Z,57.67
2022-12-12T09:42:08.311Z,52.07
2022-12-12T09:44:35.014Z,53.70
2022-12-12T09:47:10.828Z,50.40
2022-12-12T09:49:49.183Z,47.17
2022-12-12T09:52:18.524Z,50.27
2022-12-12T09:54:45.407Z,54.67
2022-12-12T09:57:41.281Z,53.83
2022-12-12T10:00:12.624Z,46.93
2022-12-12T10:03:17.121Z,51.50
2022-12-12T10:06:13.824Z,53.80
2022-12-12T10:09:03.677Z,48.90
2022-12-12T10:11:54.463Z,48.33
2022-12-12T10:14:38.848Z,49.23
2022-12-12T10:17:26.998Z,48.37
2022-12-12T10:20:16.555Z,46.33
2022-12-12T10:22:50.732Z,48.37
2022-12-12T10:25:54.254Z,49.23
2022-12-12T10:28:24.174Z,46.13
2022-12-12T10:31:12.039Z,49.50
2022-12-12T10:34:05.991Z,50.83
2022-12-12T10:37:09.987Z,52.87
2022-12-12T10:40:03.580Z,47.13
2022-12-12T10:42:36.439Z,49.33
2022-12-12T10:45:25.121Z,45.60
2022-12-12T10:47:52.231Z,47.13
2022-12-12T10:50:36.013Z,43.57
2022-12-12T10:53:05.345Z,50.07
2022-12-12T10:55:55.187Z,49.03
2022-12-12T10:58:26.835Z,40.87
2022-12-12T11:01:02.036Z,41.23
2022-12-12T11:03:48.089Z,45.33
2022-12-12T11:06:39.387Z,45.20
2022-12-12T11:09:21.128Z,39.47
2022-12-12T11:12:02.444Z,39.63
2022-12-12T11:14:38.083Z,49.37
2022-12-12T11:17:33.178Z,42.90
2022-12-12T11:20:02.339Z,41.67
2022-12-12T11:22:32.695Z,42.60
2022-12-12T11:25:00.531Z,36.37
2022-12-12T11:27:31.072Z,41.00
2022-12-12T11:30:03.813Z,41.70
2022-12-12T11:32:52.597Z,41.90
2022-12-12T11:35:26.196Z,42.07
2022-12-12T11:37:59.334Z,40.63
2022-12-12T11:40:28.292Z,42.23
2022-12-12T11:43:27.975Z,39.63
2022-12-12T11:46:03.254Z,37.50
2022-12-12T11:48:57.833Z,43.73
2022-12-12T11:51:36.439Z,41.93
2022-12-12T11:54:27.653Z,40.27
2022-12-12T11:57:05.965Z,41.77
2022-12-12T11:59:38.581Z,34.07
2022-12-12T12:02:16.412Z,39.73
2022-12-12T12:05:06.463Z,36.17
2022-12-12T12:07:46.425Z,35.87
2022-12-12T12:10:31.896Z,39.40
2022-12-12T12:13:17.312Z,42.53
2022-12-12T12:15:58.707Z,43.13
2022-12-12T12:19:02.853Z,38.17
2022-12-12T12:21:44.946Z,41.53
2022-12-12T12:24:53.267Z,35.67
2022-12-12T12:27:37.679Z,40.57
2022-12-12T12:30:21.494Z,36.40
2022-12-12T12:32:51.356Z,40.10
2022-12-12T12:35:51.978Z,39.77
2022-12-12T12:38:40.377Z,44.43
2022-12-12T12:41:41.782Z,37.77
2022-12-12T12:44:37.531Z,39.77
2022-12-12T12:47:21.135Z,38.47
2022-12-12T12:49:56.584Z,37.97
2022-12-12T12:52:48.510Z,44.20
2022-12-12T12:55:24.186Z,40.03
2022-12-12T12:57:51.960Z,40.20
2022-12-12T13:00:21.476Z,37.30
2022-12-12T13:02:56.332Z,36.57
2022-12-12T13:05:33.057Z,38.90
2022-12-12T13:08:08.822Z,38.37
2022-12-12T13:10:40.150Z,39.40
2022-12-12T13:13:26.516Z,38.80
2022-12-12T13:16:18.196Z,44.53
2022-12-12T13:18:48.573Z,34.40
2022-12-12T13:21:30.299Z,38.93
2022-12-12T13:24:02.695Z,34.90
2022-12-12T13:26:41.515Z,37.40
2022-12-12T13:29:32.368Z,37.50
2022-12-12T13:32:08.875Z,34.70
2022-12-12T13:34:40.998Z,35.47
2022-12-12T13:37:07.743Z,39.00
2022-12-12T13:39:38.072Z,40.13
2022-12-12T13:42:10.407Z,42.20
2022-12-12T13:44:44.394Z,33.43
2022-12-12T13:47:22.316Z,34.43
2022-12-12T13:50:11.032Z,39.17
2022-12-12T13:52:42.455Z,42.13
2022-12-12T13:55:12.092Z,37.83
2022-12-12T13:58:01.359Z,31.07
2022-12-12T14:00:30.229Z,33.17
2022-12-12T14:03:12.179Z,32.00
2022-12-12T14:05:41.229Z,34.77
2022-12-12T14:08:10.953Z,32.07
2022-12-12T14:10:41.604Z,33.00
2022-12-12T14:13:23.030Z,34.23
2022-12-12T14:15:55.859Z,30.27
2022-12-12T14:18:36.027Z,32.47
2022-12-12T14:21:12.579Z,36.53
2022-12-12T14:23:44.001Z,37.77
2022-12-12T14:26:29.020Z,35.37
2022-12-12T14:29:17.775Z,33.37
2022-12-12T14:31:47.803Z,38.67
2022-12-12T14:34:26.102Z,35.93
2022-12-12T14:37:00.805Z,36.00
2022-12-12T14:39:59.479Z,34.47
2022-12-12T14:43:21.116Z,34.80
2022-12-12T14:45:49.705Z,34.73
2022-12-12T14:48:26.664Z,38.43
2022-12-12T14:50:55.073Z,35.57
2022-12-12T14:53:32.449Z,33.73
2022-12-12T14:56:03.541Z,36.40
2022-12-12T14:58:33.844Z,35.03
2022-12-12T15:01:05.154Z,35.83
2022-12-12T15:03:52.388Z,39.70
2022-12-12T15:06:52.859Z,42.40
2022-12-12T15:09:31.144Z,37.47
2022-12-12T15:12:10.120Z,37.43
2022-12-12T15:14:48.672Z,37.13
2022-12-12T15:17:20.934Z,38.70
2022-12-12T15:19:52.239Z,45.67
2022-12-12T15:22:28.726Z,33.17
2022-12-12T15:24:57.297Z,40.73
2022-12-12T15:27:30.902Z,40.57
2022-12-12T15:30:02.047Z,40.67
2022-12-12T15:32:29.588Z,35.60
2022-12-12T15:35:05.680Z,39.87
2022-12-12T15:37:37.153Z,39.47
2022-12-12T15:40:06.827Z,39.73
2022-12-12T15:42:33.820Z,45.37
2022-12-12T15:45:00.948Z,37.80
2022-12-12T15:47:27.721Z,37.57
2022-12-12T15:49:54.986Z,42.40
2022-12-12T15:52:27.013Z,41.83
2022-12-12T15:54:59.089Z,46.60
2022-12-12T15:57:31.383Z,42.43
2022-12-12T16:00:10.104Z,43.70
2022-12-12T16:02:37.174Z,46.30
2022-12-12T16:05:24.779Z,47.93
2022-12-12T16:07:52.838Z,49.03
2022-12-12T16:10:27.099Z,53.43
2022-12-12T16:13:22.285Z,49.57
2022-12-12T16:15:49.265Z,46.90
2022-12-12T16:18:24.190Z,52.57
2022-12-12T16:20:56.505Z,45.27
2022-12-12T16:23:33.148Z,47.27
2022-12-12T16:26:00.083Z,51.23
2022-12-12T16:28:30.382Z,50.80
2022-12-12T16:31:02.547Z,55.53
2022-12-12T16:33:37.468Z,48.17
2022-12-12T16:36:07.361Z,54.30
2022-12-12T16:38:34.802Z,54.37
2022-12-12T16:41:04.377Z,54.37
2022-12-12T16:43:31.423Z,63.47
2022-12-12T16:45:58.811Z,57.53
2022-12-12T16:48:31.224Z,66.80
2022-12-12T16:51:02.670Z,52.63
2022-12-12T16:53:29.388Z,60.87
2022-12-12T16:55:56.460Z,54.57
2022-12-12T16:58:23.462Z,58.57
2022-12-12T17:00:55.184Z,60.43
2022-12-12T17:03:26.009Z,52.60
2022-12-12T17:05:53.236Z,64.67
2022-12-12T17:08:20.179Z,57.10
2022-12-12T17:10:48.722Z,66.73
2022-12-12T17:13:24.928Z,67.70
2022-12-12T17:15:53.948Z,58.37
2022-12-12T17:18:21.473Z,61.80
2022-12-12T17:20:48.647Z,64.33
2022-12-12T17:23:27.870Z,65.57
2022-12-12T17:26:00.710Z,62.13
2022-12-12T17:28:31.093Z,64.37
2022-12-12T17:30:57.829Z,65.63
2022-12-12T17:33:24.543Z,73.73
2022-12-12T17:36:02.152Z,60.93
2022-12-12T17:38:30.532Z,72.43
2022-12-12T17:40:57.876Z,69.27
2022-12-12T17:43:25.126Z,70.63
2022-12-12T17:46:03.241Z,63.97
2022-12-12T17:48:32.104Z,71.53
2022-12-12T17:51:05.246Z,67.57
2022-12-12T17:53:36.599Z,64.50
2022-12-12T17:56:11.756Z,63.73
2022-12-12T17:58:42.226Z,62.57
2022-12-12T18:01:16.731Z,60.17
2022-12-12T18:03:44.683Z,62.67
2022-12-12T18:06:12.578Z,69.27
2022-12-12T18:08:42.150Z,59.20
2022-12-12T18:11:10.705Z,63.77
2022-12-12T18:13:38.781Z,65.07
2022-12-12T18:16:06.801Z,64.80
2022-12-12T18:18:34.177Z,73.60
2022-12-12T18:21:06.048Z,65.87
2022-12-12T18:23:35.230Z,73.10
2022-12-12T18:26:07.823Z,64.27
2022-12-12T18:28:35.129Z,70.17
2022-12-12T18:31:03.110Z,78.07
2022-12-12T18:33:30.426Z,70.83
2022-12-12T18:36:15.258Z,94.30
2022-12-12T18:38:47.442Z,84.80
2022-12-12T18:41:16.309Z,85.00
2022-12-12T18:43:43.250Z,71.97
2022-12-12T18:46:16.562Z,72.60
2022-12-12T18:48:46.037Z,76.27
2022-12-12T18:51:19.590Z,92.13
2022-12-12T18:53:47.177Z,99.27
2022-12-12T18:56:22.929Z,91.87
2022-12-12T18:58:49.807Z,92.43
2022-12-12T19:01:19.603Z,102.93
2022-12-12T19:03:50.186Z,96.13
2022-12-12T19:06:23.004Z,93.40
2022-12-12T19:08:50.122Z,90.73
2022-12-12T19:11:17.466Z,88.97
2022-12-12T19:13:44.963Z,79.93
2022-12-12T19:16:18.127Z,84.10
2022-12-12T19:18:45.946Z,77.77
2022-12-12T19:21:21.738Z,90.03
2022-12-12T19:23:48.901Z,72.00
2022-12-12T19:26:26.759Z,80.40
2022-12-12T19:29:05.091Z,91.27
2022-12-12T19:31:34.508Z,82.60
2022-12-12T19:34:06.260Z,88.57
2022-12-12T19:36:34.075Z,83.73
2022-12-12T19:39:01.502Z,77.97
2022-12-12T19:41:29.858Z,82.47
2022-12-12T19:44:01.432Z,88.13
2022-12-12T19:46:30.989Z,88.13
2022-12-12T19:49:02.672Z,81.87
2022-12-12T19:51:32.839Z,93.03
2022-12-12T19:54:00.948Z,93.60
2022-12-12T19:56:30.955Z,86.57
2022-12-12T19:58:59.018Z,81.60
2022-12-12T20:01:34.247Z,81.73
2022-12-12T20:04:05.467Z,79.13
2022-12-12T20:06:45.894Z,71.37
2022-12-12T20:09:16.374Z,74.27
2022-12-12T20:11:45.245Z,73.37
2022-12-12T20:14:15.119Z,76.37
2022-12-12T20:16:42.356Z,67.23
2022-12-12T20:19:09.915Z,66.90
2022-12-12T20:22:00.320Z,72.10
2022-12-12T20:24:24.093Z,75.80
2022-12-12T20:26:51.211Z,64.90
2022-12-12T20:29:20.271Z,82.13
2022-12-12T20:31:48.388Z,90.37
2022-12-12T20:34:17.132Z,95.18
2022-12-12T20:36:44.296Z,71.77
2022-12-12T20:39:16.028Z,71.00
2022-12-12T20:41:44.081Z,69.33
2022-12-12T20:44:12.528Z,72.70
2022-12-12T20:46:41.041Z,72.47
2022-12-12T20:49:10.522Z,68.63
2022-12-12T20:54:25.205Z,71.77
2022-12-12T20:56:53.287Z,70.43
2022-12-12T20:59:20.123Z,71.47
2022-12-12T21:01:47.292Z,76.10
2022-12-12T21:04:15.224Z,82.93
2022-12-12T21:06:44.707Z,72.57
2022-12-12T21:09:16.275Z,77.47
2022-12-12T21:11:46.412Z,75.63
2022-12-12T21:14:13.186Z,77.83
2022-12-12T21:16:40.073Z,102.27
2022-12-12T21:19:11.275Z,86.40
2022-12-12T21:21:39.621Z,89.60
2022-12-12T21:24:06.986Z,80.17
2022-12-12T21:26:34.624Z,87.63
2022-12-12T21:29:02.602Z,96.37
2022-12-12T21:31:32.489Z,77.33
2022-12-12T21:34:00.399Z,77.07
2022-12-12T21:36:28.948Z,85.10
2022-12-12T21:38:57.895Z,88.33
2022-12-12T21:41:25.428Z,83.13
2022-12-12T21:43:52.678Z,83.97
2022-12-12T21:46:26.669Z,79.70
2022-12-12T21:49:12.382Z,75.40
2022-12-12T21:51:40.434Z,71.07
2022-12-12T21:54:09.842Z,79.73
2022-12-12T21:56:36.688Z,82.37
2022-12-12T21:59:03.886Z,77.63
2022-12-12T22:01:32.357Z,78.57
2022-12-12T22:04:00.171Z,92.07
2022-12-12T22:06:29.286Z,81.07
2022-12-12T22:08:57.288Z,82.90
2022-12-12T22:11:39.928Z,86.07
2022-12-12T22:14:10.407Z,85.73
2022-12-12T22:16:37.892Z,87.63
2022-12-12T22:19:07.082Z,74.77
2022-12-12T22:21:34.719Z,86.03
2022-12-12T22:24:02.838Z,84.97
2022-12-12T22:26:38.705Z,87.93
2022-12-12T22:29:11.863Z,76.27
2022-12-12T22:31:39.901Z,75.33
2022-12-12T22:34:17.279Z,88.53
2022-12-12T22:36:45.093Z,88.37
2022-12-12T22:39:18.982Z,85.67
2022-12-12T22:41:46.620Z,77.47
2022-12-12T22:44:16.239Z,84.73
2022-12-12T22:46:45.289Z,82.43
2022-12-12T22:49:15.172Z,81.37
2022-12-12T22:51:43.639Z,83.90
2022-12-12T22:54:10.426Z,94.27
2022-12-12T22:56:38.228Z,92.50
2022-12-12T22:59:06.181Z,83.83
2022-12-12T23:01:33.719Z,92.43
2022-12-12T23:04:00.846Z,81.23
2022-12-12T23:06:33.431Z,86.10
2022-12-12T23:09:06.298Z,80.63
2022-12-12T23:11:34.972Z,79.67
2022-12-12T23:14:07.081Z,81.27
2022-12-12T23:16:35.740Z,82.70
2022-12-12T23:19:04.851Z,71.07
2022-12-12T23:21:34.160Z,74.93
2022-12-12T23:24:00.990Z,85.60
2022-12-12T23:26:30.323Z,88.07
2022-12-12T23:29:00.273Z,85.57
2022-12-12T23:31:33.270Z,78.03
2022-12-12T23:34:06.840Z,80.70
2022-12-12T23:36:33.543Z,76.70
2022-12-12T23:39:03.585Z,77.50
2022-12-12T23:41:30.423Z,82.83
2022-12-12T23:43:57.642Z,85.07
2022-12-12T23:46:33.766Z,84.73
2022-12-12T23:49:07.066Z,82.80
2022-12-12T23:51:42.797Z,94.67
2022-12-12T23:54:12.081Z,85.90
2022-12-12T23:56:39.831Z,88.63
2022-12-12T23:59:06.650Z,95.77
